Last 48 Hours

Bell Hill-West

Hourly Data | America/Los_Angeles
as of 5/18/21 5:03 PM PDT
Date & Time Temp (°F) RH (%) Dew Pt (°F) Wet Bulb (°F) Wind Dir (°) Wind Spd (mph) Wind Gust (mph) Wind Gst Dir (°) Solar Rad (W/m2) Latest Rain (In) Daily Rain (In) Daily Min Temp (°F) Daily Max Temp (°F) Daily ETo (in)
5/18/21 - 1700 72.3 26 35.6 52.4 SW | 236 9.8 20.9 SW | 220 731 0.00 0.00 44.2 75.7 0.221
5/18/21 - 1600 74.3 24 35.7 53.0 SW | 231 9.7 18.2 SSW | 210 892 0.00 0.00 44.2 75.7 0.199
5/18/21 - 1500 75.0 19 30.6 51.6 WSW | 239 8.7 17.2 WSW | 246 1,005 0.00 0.00 44.2 75.7 0.172
5/18/21 - 1400 74.1 16 25.4 50.0 SW | 233 9.4 17.5 SSW | 205 1,051 0.00 0.00 44.2 75.5 0.142
5/18/21 - 1300 73.2 25 34.9 52.5 SW | 233 8.6 17.8 S | 174 1,047 0.00 0.00 44.2 74.4 0.110
5/18/21 - 1200 71.5 31 38.6 53.4 WSW | 244 6.5 14.8 SW | 218 981 0.00 0.00 44.2 73.6 0.080
5/18/21 - 1100 69.4 35 40.4 53.3 W | 277 4.6 12.8 SW | 235 854 0.00 0.00 44.2 71.5 0.054
5/18/21 - 1000 65.9 38 39.9 51.9 N | 1 3.0 7.4 NNW | 331 684 0.00 0.00 44.2 67.7 0.032
5/18/21 - 0900 63.0 42 39.4 50.7 N | 350 1.5 5.8 NNE | 19 484 0.00 0.00 44.2 64.4 0.015
5/18/21 - 0800 54.9 58 40.3 47.8 S | 183 1.0 3.4 S | 174 271 0.00 0.00 44.2 60.7 0.004
5/18/21 - 0700 45.9 75 38.4 42.6 S | 188 2.4 4.4 S | 169 54 0.00 0.00 44.2 55.6 0.000
5/18/21 - 0600 45.2 77 38.4 42.3 S | 189 2.3 4.8 S | 184 1 0.00 0.00 44.2 55.6 0.000
5/18/21 - 0500 45.7 77 38.8 42.7 SSW | 192 1.7 4.1 S | 176 0 0.00 0.00 45.0 55.6 0.000
5/18/21 - 0400 47.6 73 39.4 44.0 S | 190 1.9 4.1 SW | 222 0 0.00 0.00 46.5 55.6 0.000
5/18/21 - 0300 52.1 64 40.2 46.5 S | 188 2.7 5.1 S | 186 0 0.00 0.00 49.8 55.6 0.000
5/18/21 - 0200 53.4 60 40.0 47.0 S | 185 1.6 4.8 S | 175 0 0.00 0.00 49.8 55.6 0.000
5/18/21 - 0100 55.9 56 40.5 48.3 S | 178 1.9 6.4 WSW | 256 0 0.00 0.00 44.4 79.4 0.257
5/18/21 - 0000 56.6 54 40.3 48.5 SSW | 204 4.2 7.8 SSW | 208 0 0.00 0.00 44.4 79.4 0.257
5/17/21 - 2300 57.1 52 39.6 48.4 SSW | 192 4.9 8.1 S | 180 0 0.00 0.00 44.4 79.4 0.256
5/17/21 - 2200 60.4 44 38.7 49.4 SSW | 210 5.5 13.2 WSW | 247 0 0.00 0.00 44.4 79.4 0.255
5/17/21 - 2100 63.0 44 40.5 51.2 SW | 226 5.3 14.2 SW | 220 4 0.00 0.00 44.4 79.4 0.254
5/17/21 - 2000 67.6 41 43.2 54.0 SW | 227 5.6 15.8 SSW | 195 107 0.00 0.00 44.4 79.4 0.252
5/17/21 - 1900 72.5 32 40.1 54.2 WSW | 243 9.5 19.5 WSW | 247 308 0.00 0.00 44.4 79.4 0.248
5/17/21 - 1800 76.3 22 34.9 53.3 WSW | 254 7.3 19.8 W | 273 523 0.00 0.00 44.4 79.4 0.236
5/17/21 - 1700 76.6 24 37.0 54.2 SW | 233 8.5 16.8 S | 183 717 0.00 0.00 44.4 79.4 0.218
5/17/21 - 1600 77.1 29 42.4 56.4 SW | 236 9.9 18.5 W | 259 878 0.00 0.00 44.4 79.4 0.195
5/17/21 - 1500 77.9 27 41.5 56.2 SW | 230 9.0 17.5 SSE | 149 995 0.00 0.00 44.4 79.4 0.168
5/17/21 - 1400 76.6 30 42.6 56.3 WSW | 242 7.7 15.8 WSW | 252 1,053 0.00 0.00 44.4 78.1 0.138
5/17/21 - 1300 73.6 36 44.9 56.6 SW | 231 7.5 14.5 S | 184 1,051 0.00 0.00 44.4 75.5 0.107
5/17/21 - 1200 71.5 41 46.3 56.7 WSW | 243 6.4 12.1 WSW | 246 984 0.00 0.00 44.4 72.7 0.078
5/17/21 - 1100 68.9 46 47.1 56.3 NW | 306 2.6 7.4 WSW | 254 857 0.00 0.00 44.4 71.0 0.052
5/17/21 - 1000 64.8 55 48.2 55.6 N | 349 2.4 6.4 NNE | 24 684 0.00 0.00 44.4 66.8 0.030
5/17/21 - 0900 60.6 62 47.4 53.7 NNE | 31 1.8 6.1 NE | 50 483 0.00 0.00 44.4 63.2 0.014
5/17/21 - 0800 54.8 71 45.5 50.4 SSE | 161 1.1 4.1 NE | 43 266 0.00 0.00 44.4 59.0 0.004
5/17/21 - 0700 45.8 87 42.0 44.3 S | 191 2.0 3.8 S | 189 54 0.00 0.00 44.4 57.2 0.000
5/17/21 - 0600 45.6 87 41.8 44.1 S | 188 1.7 3.8 S | 187 1 0.00 0.00 44.7 57.2 0.000
5/17/21 - 0500 46.7 85 42.4 45.0 S | 190 1.8 3.4 SSW | 197 0 0.00 0.00 46.3 57.2 0.000
5/17/21 - 0400 50.1 78 43.3 47.1 S | 187 1.1 4.8 SE | 129 0 0.00 0.00 47.4 57.2 0.000
5/17/21 - 0300 54.3 71 45.2 50.0 SW | 224 2.3 8.4 SSW | 207 0 0.00 0.00 52.3 57.2 0.000
5/17/21 - 0200 55.2 69 45.4 50.5 SSW | 213 2.3 8.1 SW | 218 0 0.00 0.00 53.9 57.2 0.000
5/17/21 - 0100 57.0 69 47.0 52.1 SSW | 198 1.3 4.8 SW | 219 0 0.00 0.00 48.4 82.4 0.252
5/17/21 - 0000 58.8 66 47.6 53.1 S | 189 1.0 5.8 SSW | 202 0 0.00 0.00 48.4 82.4 0.252
5/16/21 - 2300 61.3 63 48.7 54.7 W | 266 1.5 6.8 WSW | 238 0 0.00 0.00 48.4 82.4 0.252
5/16/21 - 2200 64.4 57 49.1 56.0 SW | 217 3.5 10.5 S | 182 0 0.00 0.00 48.4 82.4 0.252
5/16/21 - 2100 66.7 54 49.8 57.1 S | 191 3.5 8.8 SW | 232 5 0.00 0.00 48.4 82.4 0.251
5/16/21 - 2000 71.0 48 50.2 58.6 SW | 217 5.3 12.1 S | 178 100 0.00 0.00 48.4 82.4 0.250
5/16/21 - 1900 75.0 42 50.2 59.6 SW | 225 7.8 16.2 SSE | 166 292 0.00 0.00 48.4 82.4 0.247
5/16/21 - 1800 77.2 39 50.0 60.0 SW | 229 8.7 16.8 WSW | 250 506 0.00 0.00 48.4 82.4 0.236
5/16/21 - 1700 78.2 36 49.2 59.8 SW | 216 9.0 17.5 SSW | 200 698 0.00 0.00 48.4 82.4 0.219
Max 78.2 87 50.2 60.0 - 9.9 20.9 - 1,053 0.00 0.00 53.9 82.4 0.257
Avg 63.3 50 42.0 51.7 - 4.7 10.6 - 380 0.00 - - - -
Min 45.2 16 25.4 42.3 - 1.0 3.4 - 0 0.00 0.00 44.2 55.6 0.000
Total - - - - - - - - - 0.00 - - - -